Ree — C6QK9 — position and weather

sailwx.info

Track history (hours):
 
Tides and Currents Weather Stations Pressure Air Temp Water Temp Dewpoint Dewpoint Depression Visibility Wind Speed Wind Dir Waves Ship Positions

Ree

Last reported at 2018-Apr-24 17:59 UTC. Time now 2018-Apr-25 07:00 UTC.
Position N 23°41' W 063°10'.

Length 34 m.

Type: Pleasure craft. MMSI: 308008000.

Date/timePositionNaut miles runAvg speedWind from/ knotsBaromVisibWave heightAir tempDewpointWater temp
2018-Apr-24 17:59N 23°41' W 063°10'3 6.6
2018-Apr-24 17:31N 23°38' W 063°09'3 6.6
2018-Apr-24 17:01N 23°35' W 063°08'3 6.7
2018-Apr-24 16:31N 23°32' W 063°07'3 6.0
2018-Apr-24 16:01N 23°29' W 063°06'3 5.6
2018-Apr-24 15:31N 23°26' W 063°05'3 6.2
2018-Apr-24 15:00N 23°23' W 063°04'3 6.7
2018-Apr-24 14:31N 23°20' W 063°03'3 6.2
2018-Apr-24 14:00N 23°17' W 063°02'3 5.9
2018-Apr-24 13:31N 23°14' W 063°02'3 6.1
2018-Apr-24 13:01N 23°11' W 063°01'3 6.6
2018-Apr-24 12:30N 23°08' W 063°00'3 6.9
2018-Apr-24 12:01N 23°04' W 062°60'4 7.1
2018-Apr-24 11:28N 23°01' W 062°59'3 7.4
2018-Apr-24 11:00N 22°57' W 062°58'4 7.3
2018-Apr-24 10:31N 22°54' W 062°58'4 7.3
2018-Apr-24 10:01N 22°50' W 062°57'4 7.4
2018-Apr-24 09:31N 22°46' W 062°57'4 7.4
2018-Apr-24 09:01N 22°43' W 062°56'3 7.0
2018-Apr-24 08:30N 22°39' W 062°55'3 6.4
2018-Apr-24 08:00N 22°36' W 062°55'3 6.3
2018-Apr-24 07:31N 22°33' W 062°54'3 6.4
2018-Apr-24 07:01N 22°30' W 062°53'3 5.9
2018-Apr-24 06:31N 22°27' W 062°52'3 6.3
2018-Apr-24 06:01N 22°24' W 062°51'3 6.4
2018-Apr-24 05:31N 22°21' W 062°50'3 6.3
2018-Apr-24 05:00N 22°18' W 062°50'4 7.2
2018-Apr-24 04:31N 22°14' W 062°49'4 7.7
2018-Apr-24 04:01N 22°11' W 062°48'4 7.8
2018-Apr-24 03:31N 22°07' W 062°48'3 6.8
2018-Apr-24 03:01N 22°04' W 062°47'3 7.0
2018-Apr-24 02:31N 22°00' W 062°46'3 6.4
2018-Apr-24 02:01N 21°57' W 062°45'3 6.3
2018-Apr-24 01:31N 21°54' W 062°45'3 6.9
2018-Apr-24 01:01N 21°50' W 062°44'3 6.0
2018-Apr-24 00:31N 21°48' W 062°44'3 6.1
2018-Apr-24 00:01N 21°45' W 062°43'3 6.7
2018-Apr-23 23:31N 21°41' W 062°43'4 7.2
2018-Apr-23 23:01N 21°38' W 062°42'4 7.6
2018-Apr-23 22:31N 21°34' W 062°41'4 7.8
2018-Apr-23 22:01N 21°30' W 062°41'4 7.0
2018-Apr-23 21:31N 21°27' W 062°40'4 7.3
2018-Apr-23 21:01N 21°23' W 062°40'4 7.2
2018-Apr-23 20:31N 21°19' W 062°39'4 7.1
2018-Apr-23 20:01N 21°16' W 062°38'4 7.1
2018-Apr-23 19:31N 21°12' W 062°38'4 7.1
2018-Apr-23 19:01N 21°09' W 062°37'4 8.0
2018-Apr-23 18:31N 21°05' W 062°37'4 7.8
2018-Apr-23 18:01N 21°01' W 062°36'4 7.9
2018-Apr-23 17:30N 20°57' W 062°35'4 8.1
2018-Apr-23 17:00N 20°53' W 062°35'4 8.3
2018-Apr-23 16:31N 20°49' W 062°34'4 8.3
2018-Apr-23 16:01N 20°45' W 062°33'4 7.3
2018-Apr-23 15:30N 20°41' W 062°33'4 8.5
2018-Apr-23 15:01N 20°37' W 062°32'4 8.4
2018-Apr-23 14:31N 20°33' W 062°31'4 8.8
2018-Apr-23 14:01N 20°29' W 062°31'111 9.0
2018-Apr-23 01:35N 18°39' W 062°13'3 9.6
2018-Apr-23 01:14N 18°35' W 062°12'45 8.1
2018-Apr-22 19:37N 17°50' W 062°05'1 6.6
2018-Apr-22 19:31N 17°50' W 062°05'3 6.5
2018-Apr-22 19:01N 17°46' W 062°04'4 8.5
2018-Apr-22 18:31N 17°42' W 062°04'4 8.3
2018-Apr-22 18:01N 17°38' W 062°03'3 6.7
2018-Apr-22 17:30N 17°35' W 062°02'4 7.1
2018-Apr-22 17:00N 17°31' W 062°02'5 9.1
2018-Apr-22 16:30N 17°27' W 062°01'4 9.0
2018-Apr-22 16:00N 17°22' W 062°01'5 9.1
2018-Apr-22 15:28N 17°18' W 062°00'4 9.2
2018-Apr-22 15:00N 17°13' W 061°59'3 5.7
2018-Apr-22 14:30N 17°10' W 061°59'3 5.4
2018-Apr-22 14:00N 17°08' W 061°59'1 2.5
2018-Apr-22 13:30N 17°08' W 061°60'3 6.5
2018-Apr-22 13:00N 17°05' W 061°58'5 6.0
2018-Apr-22 12:10N 17°01' W 061°56'1 7.1
2018-Apr-22 12:00N 17°00' W 061°55'3 6.3
2018-Apr-22 11:29N 16°59' W 061°52'3 6.8
2018-Apr-22 11:00N 16°59' W 061°48'3 5.0
2018-Apr-22 10:29N 17°00' W 061°46'0 0.0
2018-Apr-22 09:59N 17°00' W 061°46'0 0.0
2018-Apr-22 09:29N 17°00' W 061°46'0 0.0
2018-Apr-22 08:59N 17°00' W 061°46'0 0.0
2018-Apr-22 08:29N 17°00' W 061°46'0 0.0
2018-Apr-22 07:59N 17°00' W 061°46'0 0.0
2018-Apr-22 07:29N 17°00' W 061°46'0 0.0
2018-Apr-22 06:59N 17°00' W 061°46'0 0.0
2018-Apr-22 06:29N 17°00' W 061°46'0 0.0
2018-Apr-22 05:59N 17°00' W 061°46'0 0.0
2018-Apr-22 05:29N 17°00' W 061°46'0 0.0
2018-Apr-22 04:59N 17°00' W 061°46'0 0.0
2018-Apr-22 04:29N 17°00' W 061°46'0 0.0
2018-Apr-22 03:59N 17°00' W 061°46'0 0.0
2018-Apr-22 03:29N 17°00' W 061°46'0 0.0
2018-Apr-22 02:59N 17°00' W 061°46'0 0.0
2018-Apr-22 02:29N 17°00' W 061°46'0 0.0
2018-Apr-22 01:59N 17°00' W 061°46'0 0.0
2018-Apr-22 01:29N 17°00' W 061°46'0 0.0
2018-Apr-22 00:59N 17°00' W 061°46'0 0.0
2018-Apr-22 00:29N 17°00' W 061°46'0 0.0
2018-Apr-21 23:59N 17°00' W 061°46'0 0.0
2018-Apr-21 23:29N 17°00' W 061°46'0 0.0
2018-Apr-21 22:59N 17°00' W 061°46'0 0.0
2018-Apr-21 22:29N 17°00' W 061°46'0 0.0
2018-Apr-21 21:59N 17°00' W 061°46'0 0.0
2018-Apr-21 21:29N 17°00' W 061°46'0 0.0
2018-Apr-21 20:59N 17°00' W 061°46'0 0.0
2018-Apr-21 20:29N 17°00' W 061°46'0 0.0
2018-Apr-21 19:59N 17°00' W 061°46'0 0.0
2018-Apr-21 19:29N 17°00' W 061°46'0 0.0
2018-Apr-21 18:59N 17°00' W 061°46'0 0.0
2018-Apr-21 18:29N 17°00' W 061°46'0 0.1
2018-Apr-21 17:58N 17°00' W 061°46'0 0.0
2018-Apr-21 17:28N 17°00' W 061°46'0 0.0
2018-Apr-21 16:58N 17°00' W 061°46'0 0.0
2018-Apr-21 16:28N 17°00' W 061°46'0 0.0
2018-Apr-21 15:58N 17°00' W 061°46'0 0.0
2018-Apr-21 15:28N 17°00' W 061°46'0 0.0
2018-Apr-21 14:58N 17°00' W 061°46'0 0.0
2018-Apr-21 14:28N 17°00' W 061°46'0 0.0
2018-Apr-21 13:58N 17°00' W 061°46'0 0.0
2018-Apr-21 13:28N 17°00' W 061°46'0 0.0
2018-Apr-21 12:58N 17°00' W 061°46'0 0.0
2018-Apr-21 12:28N 17°00' W 061°46'0 0.0
2018-Apr-21 11:58N 17°00' W 061°46'0 0.0
2018-Apr-21 11:28N 17°00' W 061°46'0 0.0
2018-Apr-21 10:58N 17°00' W 061°46'0 0.0
2018-Apr-21 10:28N 17°00' W 061°46'0 0.0
2018-Apr-21 09:58N 17°00' W 061°46'0 0.0
2018-Apr-21 09:28N 17°00' W 061°46'0 0.0
2018-Apr-21 08:58N 17°00' W 061°46'0 0.0
2018-Apr-21 08:28N 17°00' W 061°46'0 0.0
2018-Apr-21 07:58N 17°00' W 061°46'0 0.0
2018-Apr-21 07:28N 17°00' W 061°46'0 0.0
2018-Apr-21 06:58N 17°00' W 061°46'0 0.0
2018-Apr-21 06:28N 17°00' W 061°46'0 0.0
2018-Apr-21 05:58N 17°00' W 061°46'0 0.0
2018-Apr-21 05:28N 17°00' W 061°46'0 0.0
2018-Apr-21 04:58N 17°00' W 061°46'0 0.0
2018-Apr-21 04:28N 17°00' W 061°46'0 0.0
2018-Apr-21 03:58N 17°00' W 061°46'0 0.0
2018-Apr-21 03:28N 17°00' W 061°46'0 0.0
2018-Apr-21 02:58N 17°00' W 061°46'0 0.0
2018-Apr-21 02:28N 17°00' W 061°46'0 0.0
2018-Apr-21 01:58N 17°00' W 061°46'0 0.0
2018-Apr-21 01:28N 17°00' W 061°46'0 0.0
2018-Apr-21 00:58N 17°00' W 061°46'0 0.0
2018-Apr-21 00:28N 17°00' W 061°46'0 0.0
2018-Apr-20 23:58N 17°00' W 061°46'0 0.0
2018-Apr-20 23:28N 17°00' W 061°46'0 0.0
2018-Apr-20 22:58N 17°00' W 061°46'0 0.0
2018-Apr-20 22:28N 17°00' W 061°46'0 0.0
2018-Apr-20 21:58N 17°00' W 061°46'0 0.0
2018-Apr-20 21:28N 17°00' W 061°46'0 0.0
2018-Apr-20 20:58N 17°00' W 061°46'0 0.0
2018-Apr-20 20:28N 17°00' W 061°46'0 0.0
2018-Apr-20 19:58N 17°00' W 061°46'0 0.0
2018-Apr-20 19:28N 17°00' W 061°46'0 0.0
2018-Apr-20 18:58N 17°00' W 061°46'0 0.0
2018-Apr-20 18:28N 17°00' W 061°46'0 0.0
2018-Apr-20 17:58N 17°00' W 061°46'0 0.0
2018-Apr-20 17:28N 17°00' W 061°46'0 0.0
2018-Apr-20 17:00N 17°00' W 061°46'0 0.0
2018-Apr-20 16:30N 17°00' W 061°46'0 0.0
2018-Apr-20 16:00N 17°00' W 061°46'0 0.0
2018-Apr-20 15:30N 17°00' W 061°46'0 0.0
2018-Apr-20 15:00N 17°00' W 061°46'0 0.0
2018-Apr-20 14:30N 17°00' W 061°46'0 0.0
2018-Apr-20 14:00N 17°00' W 061°46'0 0.0
2018-Apr-20 13:30N 17°00' W 061°46'0 0.0
2018-Apr-20 13:00N 17°00' W 061°46'0 0.0
2018-Apr-20 12:30N 17°00' W 061°46'0 0.0
2018-Apr-20 12:00N 17°00' W 061°46'0 0.0
2018-Apr-20 11:30N 17°00' W 061°46'0 0.0
2018-Apr-20 11:00N 17°00' W 061°46'0 0.0
2018-Apr-20 10:30N 17°00' W 061°46'0 0.0
2018-Apr-20 10:00N 17°00' W 061°46'0 0.0
2018-Apr-20 09:30N 17°00' W 061°46'0 0.0
2018-Apr-20 09:00N 17°00' W 061°46'0 0.0
2018-Apr-20 08:30N 17°00' W 061°46'0 0.0
2018-Apr-20 08:00N 17°00' W 061°46'0 0.0
2018-Apr-20 07:30N 17°00' W 061°46'0 0.0
2018-Apr-20 07:00N 17°00' W 061°46'0 0.0
2018-Apr-20 06:30N 17°00' W 061°46'0 0.0
2018-Apr-20 06:00N 17°00' W 061°46'0 0.0
2018-Apr-20 05:30N 17°00' W 061°46'0 0.0
2018-Apr-20 05:00N 17°00' W 061°46'0 0.0
2018-Apr-20 04:30N 17°00' W 061°46'0 0.0
2018-Apr-20 04:00N 17°00' W 061°46'0 0.0
2018-Apr-20 03:30N 17°00' W 061°46'0 0.0
2018-Apr-20 03:00N 17°00' W 061°46'0 0.0
2018-Apr-20 02:30N 17°00' W 061°46'0 0.0
2018-Apr-20 02:00N 17°00' W 061°46'0 0.0
2018-Apr-20 01:30N 17°00' W 061°46'0 0.0
2018-Apr-20 01:00N 17°00' W 061°46'0 0.0
2018-Apr-20 00:30N 17°00' W 061°46'0 0.0
2018-Apr-20 00:00N 17°00' W 061°46'0 0.0
2018-Apr-19 23:30N 17°00' W 061°46'0 0.0
2018-Apr-19 23:00N 17°00' W 061°46'0 0.0
2018-Apr-19 22:30N 17°00' W 061°46'0 0.0
2018-Apr-19 22:00N 17°00' W 061°46'0 0.0
2018-Apr-19 21:30N 17°00' W 061°46'0 0.0
2018-Apr-19 21:00N 17°00' W 061°46'0 0.0
2018-Apr-19 20:30N 17°00' W 061°46'0 0.0
2018-Apr-19 20:00N 17°00' W 061°46'0 0.0
2018-Apr-19 19:30N 17°00' W 061°46'0 0.0
2018-Apr-19 19:00N 17°00' W 061°46'0 0.0
2018-Apr-19 18:30N 17°00' W 061°46'0 0.0
2018-Apr-19 18:00N 17°00' W 061°46'0 0.0
2018-Apr-19 17:30N 17°00' W 061°46'0 0.0
2018-Apr-19 17:00N 17°00' W 061°46'0 0.0
2018-Apr-19 16:30N 17°00' W 061°46'0 0.0
2018-Apr-19 16:00N 17°00' W 061°46'0 0.0
2018-Apr-19 15:30N 17°00' W 061°46'0 0.0
2018-Apr-19 15:00N 17°00' W 061°46'0 0.0
2018-Apr-19 14:30N 17°00' W 061°46'0 0.0
2018-Apr-19 14:00N 17°00' W 061°46'0 0.0
2018-Apr-19 13:30N 17°00' W 061°46'0 0.0
2018-Apr-19 13:00N 17°00' W 061°46'0 0.1
2018-Apr-19 12:30N 17°00' W 061°46'0 0.1
2018-Apr-19 12:00N 17°00' W 061°46'0 0.0
2018-Apr-19 11:30N 17°00' W 061°46'0 0.0
2018-Apr-19 11:00N 17°00' W 061°46'0 0.0
2018-Apr-19 10:30N 17°00' W 061°46'0 0.0
2018-Apr-19 10:00N 17°00' W 061°46'0 0.0
2018-Apr-19 09:30N 17°00' W 061°46'0 0.0
2018-Apr-19 09:00N 17°00' W 061°46'0 0.0
2018-Apr-19 08:30N 17°00' W 061°46'0 0.0
2018-Apr-19 08:00N 17°00' W 061°46'0 0.0
2018-Apr-19 07:30N 17°00' W 061°46'0 0.0
2018-Apr-19 07:00N 17°00' W 061°46'0 0.0
2018-Apr-19 06:30N 17°00' W 061°46'0 0.0
2018-Apr-19 06:00N 17°00' W 061°46'0 0.0
2018-Apr-19 05:30N 17°00' W 061°46'0 0.0
2018-Apr-19 05:00N 17°00' W 061°46'0 0.0
2018-Apr-19 04:30N 17°00' W 061°46'0 0.0
2018-Apr-19 04:00N 17°00' W 061°46'0 0.0
2018-Apr-19 03:30N 17°00' W 061°46'0 0.0
2018-Apr-19 03:00N 17°00' W 061°46'0 0.0
2018-Apr-19 02:30N 17°00' W 061°46'0 0.0
2018-Apr-19 02:00N 17°00' W 061°46'0 0.0
2018-Apr-19 01:30N 17°00' W 061°46'0 0.0
2018-Apr-19 01:00N 17°00' W 061°46'0 0.0
2018-Apr-19 00:30N 17°00' W 061°46'0 0.0
2018-Apr-19 00:00N 17°00' W 061°46'0 0.0
2018-Apr-18 23:30N 17°00' W 061°46'0 0.0
2018-Apr-18 23:00N 17°00' W 061°46'0 0.0
2018-Apr-18 22:30N 17°00' W 061°46'0 0.0
2018-Apr-18 22:00N 17°00' W 061°46'0 0.0
2018-Apr-18 21:30N 17°00' W 061°46'0 0.0
2018-Apr-18 21:00N 17°00' W 061°46'0 0.0
2018-Apr-18 20:30N 17°00' W 061°46'0 0.0
2018-Apr-18 20:00N 17°00' W 061°46'0 0.0
2018-Apr-18 19:30N 17°00' W 061°46'0 0.0
2018-Apr-18 19:00N 17°00' W 061°46'0 0.0
2018-Apr-18 18:30N 17°00' W 061°46'0 0.0
2018-Apr-18 18:00N 17°00' W 061°46'0 0.0
2018-Apr-18 17:30N 17°00' W 061°46'0 0.0
2018-Apr-18 17:00N 17°00' W 061°46'0 0.0
2018-Apr-18 16:30N 17°00' W 061°46'0 0.0
2018-Apr-18 16:00N 17°00' W 061°46'0 0.0
2018-Apr-18 15:30N 17°00' W 061°46'0 0.0
2018-Apr-18 15:00N 17°00' W 061°46'0 0.0
2018-Apr-18 14:30N 17°00' W 061°46'0 0.0
2018-Apr-18 14:00N 17°00' W 061°46'0 0.0
2018-Apr-18 13:30N 17°00' W 061°46'0 0.0
2018-Apr-18 13:00N 17°00' W 061°46'0 0.0
2018-Apr-18 12:30N 17°00' W 061°46'0 0.0
2018-Apr-18 12:00N 17°00' W 061°46'0 0.0
2018-Apr-18 11:30N 17°00' W 061°46'0 0.0
2018-Apr-18 11:00N 17°00' W 061°46'0 0.0
2018-Apr-18 10:30N 17°00' W 061°46'0 0.0
2018-Apr-18 10:00N 17°00' W 061°46'0 0.0
2018-Apr-18 09:30N 17°00' W 061°46'0 0.0
2018-Apr-18 09:00N 17°00' W 061°46'0 0.0
2018-Apr-18 08:30N 17°00' W 061°46'0 0.0
2018-Apr-18 08:00N 17°00' W 061°46'0 0.0
2018-Apr-18 07:30N 17°00' W 061°46'0 0.0
2018-Apr-18 07:00N 17°00' W 061°46'0 0.0
2018-Apr-18 06:30N 17°00' W 061°46'0 0.0
2018-Apr-18 06:00N 17°00' W 061°46'0 0.0
2018-Apr-18 05:30N 17°00' W 061°46'0 0.0
2018-Apr-18 05:00N 17°00' W 061°46'0 0.0
2018-Apr-18 04:27N 17°00' W 061°46'0 0.0
2018-Apr-18 04:00N 17°00' W 061°46'0 0.0
2018-Apr-18 03:30N 17°00' W 061°46'0 0.0
2018-Apr-18 03:00N 17°00' W 061°46'0 0.0
2018-Apr-18 02:30N 17°00' W 061°46'0 0.0
2018-Apr-18 02:00N 17°00' W 061°46'0 0.0
2018-Apr-18 01:30N 17°00' W 061°46'0 0.0
2018-Apr-18 01:00N 17°00' W 061°46'0 0.0
2018-Apr-18 00:30N 17°00' W 061°46'0 0.0
2018-Apr-18 00:00N 17°00' W 061°46'0 0.0
2018-Apr-17 23:30N 17°00' W 061°46'0 0.0
2018-Apr-17 23:00N 17°00' W 061°46'0 0.0
2018-Apr-17 22:30N 17°00' W 061°46'0 0.0
2018-Apr-17 22:00N 17°00' W 061°46'0 0.0
2018-Apr-17 21:30N 17°00' W 061°46'0 0.0
2018-Apr-17 21:00N 17°00' W 061°46'0 0.0
2018-Apr-17 20:30N 17°00' W 061°46'0 0.0
2018-Apr-17 20:00N 17°00' W 061°46'0 0.0
2018-Apr-17 19:30N 17°00' W 061°46'0 0.0
2018-Apr-17 19:00N 17°00' W 061°46'0 0.0
2018-Apr-17 18:30N 17°00' W 061°46'0 0.0
2018-Apr-17 18:00N 17°00' W 061°46'0 0.0
2018-Apr-17 17:30N 17°00' W 061°46'0 0.0
2018-Apr-17 17:00N 17°00' W 061°46'0 0.0
2018-Apr-17 16:30N 17°00' W 061°46'0 0.0
2018-Apr-17 16:00N 17°00' W 061°46'0 0.0
2018-Apr-17 15:30N 17°00' W 061°46'0 0.0
2018-Apr-17 15:00N 17°00' W 061°46'0 0.0
2018-Apr-17 14:30N 17°00' W 061°46'0 0.0
2018-Apr-17 14:00N 17°00' W 061°46'0 0.0
2018-Apr-17 13:27N 17°00' W 061°46'0 0.0
2018-Apr-17 13:00N 17°00' W 061°46'0 0.0
2018-Apr-17 12:30N 17°00' W 061°46'0 0.0
2018-Apr-17 12:00N 17°00' W 061°46'0 0.0
2018-Apr-17 11:30N 17°00' W 061°46'0 0.0
2018-Apr-17 11:00N 17°00' W 061°46'0 0.0
2018-Apr-17 10:30N 17°00' W 061°46'0 0.0
2018-Apr-17 10:00N 17°00' W 061°46'0 0.0
2018-Apr-17 09:30N 17°00' W 061°46'0 0.0
2018-Apr-17 09:00N 17°00' W 061°46'0 0.0
2018-Apr-17 08:30N 17°00' W 061°46'0 0.0
2018-Apr-17 08:00N 17°00' W 061°46'0 0.0
2018-Apr-17 07:30N 17°00' W 061°46'0 0.0
2018-Apr-17 07:00N 17°00' W 061°46'0 0.0
2018-Apr-17 06:30N 17°00' W 061°46'0 0.0
2018-Apr-17 06:00N 17°00' W 061°46'0 0.0
2018-Apr-17 05:30N 17°00' W 061°46'0 0.0
2018-Apr-17 05:00N 17°00' W 061°46'0 0.0
2018-Apr-17 04:30N 17°00' W 061°46'0 0.0
2018-Apr-17 04:00N 17°00' W 061°46'0 0.0
2018-Apr-17 03:30N 17°00' W 061°46'0 0.0
2018-Apr-17 03:00N 17°00' W 061°46'0 0.0
2018-Apr-17 02:30N 17°00' W 061°46'0 0.0
2018-Apr-17 02:00N 17°00' W 061°46'0 0.0
2018-Apr-17 01:30N 17°00' W 061°46'0 0.0
2018-Apr-17 01:00N 17°00' W 061°46'0 0.0
2018-Apr-17 00:30N 17°00' W 061°46'0 0.0
2018-Apr-17 00:00N 17°00' W 061°46'0 0.0
2018-Apr-16 23:30N 17°00' W 061°46'0 0.0
2018-Apr-16 23:00N 17°00' W 061°46'0 0.0
2018-Apr-16 22:30N 17°00' W 061°46'0 0.0
2018-Apr-16 22:00N 17°00' W 061°46'0 0.0
2018-Apr-16 21:30N 17°00' W 061°46'0 0.0
2018-Apr-16 21:00N 17°00' W 061°46'0 0.0
2018-Apr-16 20:30N 17°00' W 061°46'0 0.0
2018-Apr-16 20:00N 17°00' W 061°46'0 0.0
2018-Apr-16 19:30N 17°00' W 061°46'0 0.0
2018-Apr-16 19:00N 17°00' W 061°46'0 0.0
2018-Apr-16 18:30N 17°00' W 061°46'0 0.0
2018-Apr-16 18:00N 17°00' W 061°46'0 0.0
2018-Apr-16 17:30N 17°00' W 061°46'0 0.0
2018-Apr-16 17:00N 17°00' W 061°46'0 0.0
2018-Apr-16 16:30N 17°00' W 061°46'0 0.0
2018-Apr-16 16:00N 17°00' W 061°46'0 0.0
2018-Apr-16 15:30N 17°00' W 061°46'0 0.0
2018-Apr-16 15:00N 17°00' W 061°46'0 0.0
2018-Apr-16 14:30N 17°00' W 061°46'0 0.0
2018-Apr-16 14:00N 17°00' W 061°46'0 0.0
2018-Apr-16 13:30N 17°00' W 061°46'0 0.0
2018-Apr-16 13:00N 17°00' W 061°46'0 0.0
2018-Apr-16 12:30N 17°00' W 061°46'0 0.0
2018-Apr-16 12:00N 17°00' W 061°46'0 0.0
2018-Apr-16 11:30N 17°00' W 061°46'0 0.0
2018-Apr-16 11:00N 17°00' W 061°46'0 0.0
2018-Apr-16 10:30N 17°00' W 061°46'0 0.0
2018-Apr-16 10:00N 17°00' W 061°46'0 0.0
2018-Apr-16 09:30N 17°00' W 061°46'0 0.0
2018-Apr-16 09:00N 17°00' W 061°46'0 0.0
2018-Apr-16 08:30N 17°00' W 061°46'0 0.0
2018-Apr-16 08:00N 17°00' W 061°46'0 0.0
2018-Apr-16 07:30N 17°00' W 061°46'0 0.0
2018-Apr-16 07:00N 17°00' W 061°46'0 0.0
2018-Apr-16 06:30N 17°00' W 061°46'0 0.0
2018-Apr-16 06:00N 17°00' W 061°46'0 0.0
2018-Apr-16 05:30N 17°00' W 061°46'0 0.0
2018-Apr-16 05:00N 17°00' W 061°46'0 0.0
2018-Apr-16 04:30N 17°00' W 061°46'0 0.0
2018-Apr-16 04:00N 17°00' W 061°46'0 0.0
2018-Apr-16 03:30N 17°00' W 061°46'0 0.0
2018-Apr-16 03:00N 17°00' W 061°46'0 0.0
2018-Apr-16 02:30N 17°00' W 061°46'0 0.0
2018-Apr-16 02:00N 17°00' W 061°46'0 0.0
2018-Apr-16 01:30N 17°00' W 061°46'0 0.0
2018-Apr-16 01:00N 17°00' W 061°46'0 0.0
2018-Apr-16 00:30N 17°00' W 061°46'0 0.0
2018-Apr-16 00:00N 17°00' W 061°46'0 0.0
2018-Apr-15 23:27N 17°00' W 061°46'0 0.0
2018-Apr-15 23:00N 17°00' W 061°46'0 0.0
2018-Apr-15 22:30N 17°00' W 061°46'0 0.0
2018-Apr-15 22:00N 17°00' W 061°46'0 0.0
2018-Apr-15 21:30N 17°00' W 061°46'0 0.0
2018-Apr-15 21:00N 17°00' W 061°46'0 0.0
2018-Apr-15 20:30N 17°00' W 061°46'0 0.0
2018-Apr-15 20:00N 17°00' W 061°46'0 0.0
2018-Apr-15 19:30N 17°00' W 061°46'0 0.0
2018-Apr-15 19:00N 17°00' W 061°46'0 0.0
2018-Apr-15 18:30N 17°00' W 061°46'0 0.0
2018-Apr-15 18:00N 17°00' W 061°46'0 0.0
2018-Apr-15 17:30N 17°00' W 061°46'0 0.0
2018-Apr-15 17:00N 17°00' W 061°46'0 0.1
2018-Apr-15 16:30N 17°00' W 061°46'2 3.6
2018-Apr-15 16:00N 16°60' W 061°48'3 6.3
2018-Apr-15 15:30N 16°60' W 061°51'3 5.8
2018-Apr-15 15:00N 16°60' W 061°54'4 7.0
2018-Apr-15 14:25N 17°03' W 061°57'3 7.2
2018-Apr-15 14:00N 17°05' W 061°58'4 8.2
2018-Apr-15 13:30N 17°09' W 062°01'4 8.4
2018-Apr-15 12:58N 17°12' W 062°04'4 8.3
2018-Apr-15 12:30N 17°15' W 062°07'4 8.1
2018-Apr-15 12:00N 17°18' W 062°09'4 7.5
2018-Apr-15 11:26N 17°22' W 062°12'3 7.3
2018-Apr-15 11:00N 17°24' W 062°14'3 6.9
2018-Apr-15 10:30N 17°27' W 062°16'61 6.0
2018-Apr-15 00:22N 18°06' W 063°05'2 3.1
2018-Apr-14 23:52N 18°04' W 063°06'0 0.0
2018-Apr-14 23:16N 18°04' W 063°06'0 0.0
2018-Apr-14 22:52N 18°04' W 063°06'0 0.3
2018-Apr-14 22:13N 18°04' W 063°05'0 0.0
2018-Apr-14 21:55N 18°04' W 063°05'0 0.0
2018-Apr-14 21:28N 18°04' W 063°05'0 0.0
2018-Apr-14 20:46N 18°04' W 063°05'0 0.0
2018-Apr-14 20:28N 18°04' W 063°05'0 0.0
2018-Apr-14 19:58N 18°04' W 063°05'0 0.0
2018-Apr-14 19:28N 18°04' W 063°05'0 0.0
2018-Apr-14 18:58N 18°04' W 063°05'  
Track history (hours):
 
Tides and Currents Weather Stations Pressure Air Temp Water Temp Dewpoint Dewpoint Depression Visibility Wind Speed Wind Dir Waves Ship Positions

Ree

Last reported at 2018-Apr-24 17:59 UTC. Time now 2018-Apr-25 07:00 UTC.
Position N 23°41' W 063°10'.

Length 34 m.

Type: Pleasure craft. MMSI: 308008000.

Date/timePositionNaut miles runAvg speedWind from/ knotsBaromVisibWave heightAir tempDewpointWater temp
2018-Apr-24 17:59N 23°41' W 063°10'3 6.6
2018-Apr-24 17:31N 23°38' W 063°09'3 6.6
2018-Apr-24 17:01N 23°35' W 063°08'3 6.7
2018-Apr-24 16:31N 23°32' W 063°07'3 6.0
2018-Apr-24 16:01N 23°29' W 063°06'3 5.6
2018-Apr-24 15:31N 23°26' W 063°05'3 6.2
2018-Apr-24 15:00N 23°23' W 063°04'3 6.7
2018-Apr-24 14:31N 23°20' W 063°03'3 6.2
2018-Apr-24 14:00N 23°17' W 063°02'3 5.9
2018-Apr-24 13:31N 23°14' W 063°02'3 6.1
2018-Apr-24 13:01N 23°11' W 063°01'3 6.6
2018-Apr-24 12:30N 23°08' W 063°00'3 6.9
2018-Apr-24 12:01N 23°04' W 062°60'4 7.1
2018-Apr-24 11:28N 23°01' W 062°59'3 7.4
2018-Apr-24 11:00N 22°57' W 062°58'4 7.3
2018-Apr-24 10:31N 22°54' W 062°58'4 7.3
2018-Apr-24 10:01N 22°50' W 062°57'4 7.4
2018-Apr-24 09:31N 22°46' W 062°57'4 7.4
2018-Apr-24 09:01N 22°43' W 062°56'3 7.0
2018-Apr-24 08:30N 22°39' W 062°55'3 6.4
2018-Apr-24 08:00N 22°36' W 062°55'3 6.3
2018-Apr-24 07:31N 22°33' W 062°54'3 6.4
2018-Apr-24 07:01N 22°30' W 062°53'3 5.9
2018-Apr-24 06:31N 22°27' W 062°52'3 6.3
2018-Apr-24 06:01N 22°24' W 062°51'3 6.4
2018-Apr-24 05:31N 22°21' W 062°50'3 6.3
2018-Apr-24 05:00N 22°18' W 062°50'4 7.2
2018-Apr-24 04:31N 22°14' W 062°49'4 7.7
2018-Apr-24 04:01N 22°11' W 062°48'4 7.8
2018-Apr-24 03:31N 22°07' W 062°48'3 6.8
2018-Apr-24 03:01N 22°04' W 062°47'3 7.0
2018-Apr-24 02:31N 22°00' W 062°46'3 6.4
2018-Apr-24 02:01N 21°57' W 062°45'3 6.3
2018-Apr-24 01:31N 21°54' W 062°45'3 6.9
2018-Apr-24 01:01N 21°50' W 062°44'3 6.0
2018-Apr-24 00:31N 21°48' W 062°44'3 6.1
2018-Apr-24 00:01N 21°45' W 062°43'3 6.7
2018-Apr-23 23:31N 21°41' W 062°43'4 7.2
2018-Apr-23 23:01N 21°38' W 062°42'4 7.6
2018-Apr-23 22:31N 21°34' W 062°41'4 7.8
2018-Apr-23 22:01N 21°30' W 062°41'4 7.0
2018-Apr-23 21:31N 21°27' W 062°40'4 7.3
2018-Apr-23 21:01N 21°23' W 062°40'4 7.2
2018-Apr-23 20:31N 21°19' W 062°39'4 7.1
2018-Apr-23 20:01N 21°16' W 062°38'4 7.1
2018-Apr-23 19:31N 21°12' W 062°38'4 7.1
2018-Apr-23 19:01N 21°09' W 062°37'4 8.0
2018-Apr-23 18:31N 21°05' W 062°37'4 7.8
2018-Apr-23 18:01N 21°01' W 062°36'4 7.9
2018-Apr-23 17:30N 20°57' W 062°35'4 8.1
2018-Apr-23 17:00N 20°53' W 062°35'4 8.3
2018-Apr-23 16:31N 20°49' W 062°34'4 8.3
2018-Apr-23 16:01N 20°45' W 062°33'4 7.3
2018-Apr-23 15:30N 20°41' W 062°33'4 8.5
2018-Apr-23 15:01N 20°37' W 062°32'4 8.4
2018-Apr-23 14:31N 20°33' W 062°31'4 8.8
2018-Apr-23 14:01N 20°29' W 062°31'111 9.0
2018-Apr-23 01:35N 18°39' W 062°13'3 9.6
2018-Apr-23 01:14N 18°35' W 062°12'45 8.1
2018-Apr-22 19:37N 17°50' W 062°05'1 6.6
2018-Apr-22 19:31N 17°50' W 062°05'3 6.5
2018-Apr-22 19:01N 17°46' W 062°04'4 8.5
2018-Apr-22 18:31N 17°42' W 062°04'4 8.3
2018-Apr-22 18:01N 17°38' W 062°03'3 6.7
2018-Apr-22 17:30N 17°35' W 062°02'4 7.1
2018-Apr-22 17:00N 17°31' W 062°02'5 9.1
2018-Apr-22 16:30N 17°27' W 062°01'4 9.0
2018-Apr-22 16:00N 17°22' W 062°01'5 9.1
2018-Apr-22 15:28N 17°18' W 062°00'4 9.2
2018-Apr-22 15:00N 17°13' W 061°59'3 5.7
2018-Apr-22 14:30N 17°10' W 061°59'3 5.4
2018-Apr-22 14:00N 17°08' W 061°59'1 2.5
2018-Apr-22 13:30N 17°08' W 061°60'3 6.5
2018-Apr-22 13:00N 17°05' W 061°58'5 6.0
2018-Apr-22 12:10N 17°01' W 061°56'1 7.1
2018-Apr-22 12:00N 17°00' W 061°55'3 6.3
2018-Apr-22 11:29N 16°59' W 061°52'3 6.8
2018-Apr-22 11:00N 16°59' W 061°48'3 5.0
2018-Apr-22 10:29N 17°00' W 061°46'0 0.0
2018-Apr-22 09:59N 17°00' W 061°46'0 0.0
2018-Apr-22 09:29N 17°00' W 061°46'0 0.0
2018-Apr-22 08:59N 17°00' W 061°46'0 0.0
2018-Apr-22 08:29N 17°00' W 061°46'0 0.0
2018-Apr-22 07:59N 17°00' W 061°46'0 0.0
2018-Apr-22 07:29N 17°00' W 061°46'0 0.0
2018-Apr-22 06:59N 17°00' W 061°46'0 0.0
2018-Apr-22 06:29N 17°00' W 061°46'0 0.0
2018-Apr-22 05:59N 17°00' W 061°46'0 0.0
2018-Apr-22 05:29N 17°00' W 061°46'0 0.0
2018-Apr-22 04:59N 17°00' W 061°46'0 0.0
2018-Apr-22 04:29N 17°00' W 061°46'0 0.0
2018-Apr-22 03:59N 17°00' W 061°46'0 0.0
2018-Apr-22 03:29N 17°00' W 061°46'0 0.0
2018-Apr-22 02:59N 17°00' W 061°46'0 0.0
2018-Apr-22 02:29N 17°00' W 061°46'0 0.0
2018-Apr-22 01:59N 17°00' W 061°46'0 0.0
2018-Apr-22 01:29N 17°00' W 061°46'0 0.0
2018-Apr-22 00:59N 17°00' W 061°46'0 0.0
2018-Apr-22 00:29N 17°00' W 061°46'0 0.0
2018-Apr-21 23:59N 17°00' W 061°46'0 0.0
2018-Apr-21 23:29N 17°00' W 061°46'0 0.0
2018-Apr-21 22:59N 17°00' W 061°46'0 0.0
2018-Apr-21 22:29N 17°00' W 061°46'0 0.0
2018-Apr-21 21:59N 17°00' W 061°46'0 0.0
2018-Apr-21 21:29N 17°00' W 061°46'0 0.0
2018-Apr-21 20:59N 17°00' W 061°46'0 0.0
2018-Apr-21 20:29N 17°00' W 061°46'0 0.0
2018-Apr-21 19:59N 17°00' W 061°46'0 0.0
2018-Apr-21 19:29N 17°00' W 061°46'0 0.0
2018-Apr-21 18:59N 17°00' W 061°46'0 0.0
2018-Apr-21 18:29N 17°00' W 061°46'0 0.1
2018-Apr-21 17:58N 17°00' W 061°46'0 0.0
2018-Apr-21 17:28N 17°00' W 061°46'0 0.0
2018-Apr-21 16:58N 17°00' W 061°46'0 0.0
2018-Apr-21 16:28N 17°00' W 061°46'0 0.0
2018-Apr-21 15:58N 17°00' W 061°46'0 0.0
2018-Apr-21 15:28N 17°00' W 061°46'0 0.0
2018-Apr-21 14:58N 17°00' W 061°46'0 0.0
2018-Apr-21 14:28N 17°00' W 061°46'0 0.0
2018-Apr-21 13:58N 17°00' W 061°46'0 0.0
2018-Apr-21 13:28N 17°00' W 061°46'0 0.0
2018-Apr-21 12:58N 17°00' W 061°46'0 0.0
2018-Apr-21 12:28N 17°00' W 061°46'0 0.0
2018-Apr-21 11:58N 17°00' W 061°46'0 0.0
2018-Apr-21 11:28N 17°00' W 061°46'0 0.0
2018-Apr-21 10:58N 17°00' W 061°46'0 0.0
2018-Apr-21 10:28N 17°00' W 061°46'0 0.0
2018-Apr-21 09:58N 17°00' W 061°46'0 0.0
2018-Apr-21 09:28N 17°00' W 061°46'0 0.0
2018-Apr-21 08:58N 17°00' W 061°46'0 0.0
2018-Apr-21 08:28N 17°00' W 061°46'0 0.0
2018-Apr-21 07:58N 17°00' W 061°46'0 0.0
2018-Apr-21 07:28N 17°00' W 061°46'0 0.0
2018-Apr-21 06:58N 17°00' W 061°46'0 0.0
2018-Apr-21 06:28N 17°00' W 061°46'0 0.0
2018-Apr-21 05:58N 17°00' W 061°46'0 0.0
2018-Apr-21 05:28N 17°00' W 061°46'0 0.0
2018-Apr-21 04:58N 17°00' W 061°46'0 0.0
2018-Apr-21 04:28N 17°00' W 061°46'0 0.0
2018-Apr-21 03:58N 17°00' W 061°46'0 0.0
2018-Apr-21 03:28N 17°00' W 061°46'0 0.0
2018-Apr-21 02:58N 17°00' W 061°46'0 0.0
2018-Apr-21 02:28N 17°00' W 061°46'0 0.0
2018-Apr-21 01:58N 17°00' W 061°46'0 0.0
2018-Apr-21 01:28N 17°00' W 061°46'0 0.0
2018-Apr-21 00:58N 17°00' W 061°46'0 0.0
2018-Apr-21 00:28N 17°00' W 061°46'0 0.0
2018-Apr-20 23:58N 17°00' W 061°46'0 0.0
2018-Apr-20 23:28N 17°00' W 061°46'0 0.0
2018-Apr-20 22:58N 17°00' W 061°46'0 0.0
2018-Apr-20 22:28N 17°00' W 061°46'0 0.0
2018-Apr-20 21:58N 17°00' W 061°46'0 0.0
2018-Apr-20 21:28N 17°00' W 061°46'0 0.0
2018-Apr-20 20:58N 17°00' W 061°46'0 0.0
2018-Apr-20 20:28N 17°00' W 061°46'0 0.0
2018-Apr-20 19:58N 17°00' W 061°46'0 0.0
2018-Apr-20 19:28N 17°00' W 061°46'0 0.0
2018-Apr-20 18:58N 17°00' W 061°46'0 0.0
2018-Apr-20 18:28N 17°00' W 061°46'0 0.0
2018-Apr-20 17:58N 17°00' W 061°46'0 0.0
2018-Apr-20 17:28N 17°00' W 061°46'0 0.0
2018-Apr-20 17:00N 17°00' W 061°46'0 0.0
2018-Apr-20 16:30N 17°00' W 061°46'0 0.0
2018-Apr-20 16:00N 17°00' W 061°46'0 0.0
2018-Apr-20 15:30N 17°00' W 061°46'0 0.0
2018-Apr-20 15:00N 17°00' W 061°46'0 0.0
2018-Apr-20 14:30N 17°00' W 061°46'0 0.0
2018-Apr-20 14:00N 17°00' W 061°46'0 0.0
2018-Apr-20 13:30N 17°00' W 061°46'0 0.0
2018-Apr-20 13:00N 17°00' W 061°46'0 0.0
2018-Apr-20 12:30N 17°00' W 061°46'0 0.0
2018-Apr-20 12:00N 17°00' W 061°46'0 0.0
2018-Apr-20 11:30N 17°00' W 061°46'0 0.0
2018-Apr-20 11:00N 17°00' W 061°46'0 0.0
2018-Apr-20 10:30N 17°00' W 061°46'0 0.0
2018-Apr-20 10:00N 17°00' W 061°46'0 0.0
2018-Apr-20 09:30N 17°00' W 061°46'0 0.0
2018-Apr-20 09:00N 17°00' W 061°46'0 0.0
2018-Apr-20 08:30N 17°00' W 061°46'0 0.0
2018-Apr-20 08:00N 17°00' W 061°46'0 0.0
2018-Apr-20 07:30N 17°00' W 061°46'0 0.0
2018-Apr-20 07:00N 17°00' W 061°46'0 0.0
2018-Apr-20 06:30N 17°00' W 061°46'0 0.0
2018-Apr-20 06:00N 17°00' W 061°46'0 0.0
2018-Apr-20 05:30N 17°00' W 061°46'0 0.0
2018-Apr-20 05:00N 17°00' W 061°46'0 0.0
2018-Apr-20 04:30N 17°00' W 061°46'0 0.0
2018-Apr-20 04:00N 17°00' W 061°46'0 0.0
2018-Apr-20 03:30N 17°00' W 061°46'0 0.0
2018-Apr-20 03:00N 17°00' W 061°46'0 0.0
2018-Apr-20 02:30N 17°00' W 061°46'0 0.0
2018-Apr-20 02:00N 17°00' W 061°46'0 0.0
2018-Apr-20 01:30N 17°00' W 061°46'0 0.0
2018-Apr-20 01:00N 17°00' W 061°46'0 0.0
2018-Apr-20 00:30N 17°00' W 061°46'0 0.0
2018-Apr-20 00:00N 17°00' W 061°46'0 0.0
2018-Apr-19 23:30N 17°00' W 061°46'0 0.0
2018-Apr-19 23:00N 17°00' W 061°46'0 0.0
2018-Apr-19 22:30N 17°00' W 061°46'0 0.0
2018-Apr-19 22:00N 17°00' W 061°46'0 0.0
2018-Apr-19 21:30N 17°00' W 061°46'0 0.0
2018-Apr-19 21:00N 17°00' W 061°46'0 0.0
2018-Apr-19 20:30N 17°00' W 061°46'0 0.0
2018-Apr-19 20:00N 17°00' W 061°46'0 0.0
2018-Apr-19 19:30N 17°00' W 061°46'0 0.0
2018-Apr-19 19:00N 17°00' W 061°46'0 0.0
2018-Apr-19 18:30N 17°00' W 061°46'0 0.0
2018-Apr-19 18:00N 17°00' W 061°46'0 0.0
2018-Apr-19 17:30N 17°00' W 061°46'0 0.0
2018-Apr-19 17:00N 17°00' W 061°46'0 0.0
2018-Apr-19 16:30N 17°00' W 061°46'0 0.0
2018-Apr-19 16:00N 17°00' W 061°46'0 0.0
2018-Apr-19 15:30N 17°00' W 061°46'0 0.0
2018-Apr-19 15:00N 17°00' W 061°46'0 0.0
2018-Apr-19 14:30N 17°00' W 061°46'0 0.0
2018-Apr-19 14:00N 17°00' W 061°46'0 0.0
2018-Apr-19 13:30N 17°00' W 061°46'0 0.0
2018-Apr-19 13:00N 17°00' W 061°46'0 0.1
2018-Apr-19 12:30N 17°00' W 061°46'0 0.1
2018-Apr-19 12:00N 17°00' W 061°46'0 0.0
2018-Apr-19 11:30N 17°00' W 061°46'0 0.0
2018-Apr-19 11:00N 17°00' W 061°46'0 0.0
2018-Apr-19 10:30N 17°00' W 061°46'0 0.0
2018-Apr-19 10:00N 17°00' W 061°46'0 0.0
2018-Apr-19 09:30N 17°00' W 061°46'0 0.0
2018-Apr-19 09:00N 17°00' W 061°46'0 0.0
2018-Apr-19 08:30N 17°00' W 061°46'0 0.0
2018-Apr-19 08:00N 17°00' W 061°46'0 0.0
2018-Apr-19 07:30N 17°00' W 061°46'0 0.0
2018-Apr-19 07:00N 17°00' W 061°46'0 0.0
2018-Apr-19 06:30N 17°00' W 061°46'0 0.0
2018-Apr-19 06:00N 17°00' W 061°46'0 0.0
2018-Apr-19 05:30N 17°00' W 061°46'0 0.0
2018-Apr-19 05:00N 17°00' W 061°46'0 0.0
2018-Apr-19 04:30N 17°00' W 061°46'0 0.0
2018-Apr-19 04:00N 17°00' W 061°46'0 0.0
2018-Apr-19 03:30N 17°00' W 061°46'0 0.0
2018-Apr-19 03:00N 17°00' W 061°46'0 0.0
2018-Apr-19 02:30N 17°00' W 061°46'0 0.0
2018-Apr-19 02:00N 17°00' W 061°46'0 0.0
2018-Apr-19 01:30N 17°00' W 061°46'0 0.0
2018-Apr-19 01:00N 17°00' W 061°46'0 0.0
2018-Apr-19 00:30N 17°00' W 061°46'0 0.0
2018-Apr-19 00:00N 17°00' W 061°46'0 0.0
2018-Apr-18 23:30N 17°00' W 061°46'0 0.0
2018-Apr-18 23:00N 17°00' W 061°46'0 0.0
2018-Apr-18 22:30N 17°00' W 061°46'0 0.0
2018-Apr-18 22:00N 17°00' W 061°46'0 0.0
2018-Apr-18 21:30N 17°00' W 061°46'0 0.0
2018-Apr-18 21:00N 17°00' W 061°46'0 0.0
2018-Apr-18 20:30N 17°00' W 061°46'0 0.0
2018-Apr-18 20:00N 17°00' W 061°46'0 0.0
2018-Apr-18 19:30N 17°00' W 061°46'0 0.0
2018-Apr-18 19:00N 17°00' W 061°46'0 0.0
2018-Apr-18 18:30N 17°00' W 061°46'0 0.0
2018-Apr-18 18:00N 17°00' W 061°46'0 0.0
2018-Apr-18 17:30N 17°00' W 061°46'0 0.0
2018-Apr-18 17:00N 17°00' W 061°46'0 0.0
2018-Apr-18 16:30N 17°00' W 061°46'0 0.0
2018-Apr-18 16:00N 17°00' W 061°46'0 0.0
2018-Apr-18 15:30N 17°00' W 061°46'0 0.0
2018-Apr-18 15:00N 17°00' W 061°46'0 0.0
2018-Apr-18 14:30N 17°00' W 061°46'0 0.0
2018-Apr-18 14:00N 17°00' W 061°46'0 0.0
2018-Apr-18 13:30N 17°00' W 061°46'0 0.0
2018-Apr-18 13:00N 17°00' W 061°46'0 0.0
2018-Apr-18 12:30N 17°00' W 061°46'0 0.0
2018-Apr-18 12:00N 17°00' W 061°46'0 0.0
2018-Apr-18 11:30N 17°00' W 061°46'0 0.0
2018-Apr-18 11:00N 17°00' W 061°46'0 0.0
2018-Apr-18 10:30N 17°00' W 061°46'0 0.0
2018-Apr-18 10:00N 17°00' W 061°46'0 0.0
2018-Apr-18 09:30N 17°00' W 061°46'0 0.0
2018-Apr-18 09:00N 17°00' W 061°46'0 0.0
2018-Apr-18 08:30N 17°00' W 061°46'0 0.0
2018-Apr-18 08:00N 17°00' W 061°46'0 0.0
2018-Apr-18 07:30N 17°00' W 061°46'0 0.0
2018-Apr-18 07:00N 17°00' W 061°46'0 0.0
2018-Apr-18 06:30N 17°00' W 061°46'0 0.0
2018-Apr-18 06:00N 17°00' W 061°46'0 0.0
2018-Apr-18 05:30N 17°00' W 061°46'0 0.0
2018-Apr-18 05:00N 17°00' W 061°46'0 0.0
2018-Apr-18 04:27N 17°00' W 061°46'0 0.0
2018-Apr-18 04:00N 17°00' W 061°46'0 0.0
2018-Apr-18 03:30N 17°00' W 061°46'0 0.0
2018-Apr-18 03:00N 17°00' W 061°46'0 0.0
2018-Apr-18 02:30N 17°00' W 061°46'0 0.0
2018-Apr-18 02:00N 17°00' W 061°46'0 0.0
2018-Apr-18 01:30N 17°00' W 061°46'0 0.0
2018-Apr-18 01:00N 17°00' W 061°46'0 0.0
2018-Apr-18 00:30N 17°00' W 061°46'0 0.0
2018-Apr-18 00:00N 17°00' W 061°46'0 0.0
2018-Apr-17 23:30N 17°00' W 061°46'0 0.0
2018-Apr-17 23:00N 17°00' W 061°46'0 0.0
2018-Apr-17 22:30N 17°00' W 061°46'0 0.0
2018-Apr-17 22:00N 17°00' W 061°46'0 0.0
2018-Apr-17 21:30N 17°00' W 061°46'0 0.0
2018-Apr-17 21:00N 17°00' W 061°46'0 0.0
2018-Apr-17 20:30N 17°00' W 061°46'0 0.0
2018-Apr-17 20:00N 17°00' W 061°46'0 0.0
2018-Apr-17 19:30N 17°00' W 061°46'0 0.0
2018-Apr-17 19:00N 17°00' W 061°46'0 0.0
2018-Apr-17 18:30N 17°00' W 061°46'0 0.0
2018-Apr-17 18:00N 17°00' W 061°46'0 0.0
2018-Apr-17 17:30N 17°00' W 061°46'0 0.0
2018-Apr-17 17:00N 17°00' W 061°46'0 0.0
2018-Apr-17 16:30N 17°00' W 061°46'0 0.0
2018-Apr-17 16:00N 17°00' W 061°46'0 0.0
2018-Apr-17 15:30N 17°00' W 061°46'0 0.0
2018-Apr-17 15:00N 17°00' W 061°46'0 0.0
2018-Apr-17 14:30N 17°00' W 061°46'0 0.0
2018-Apr-17 14:00N 17°00' W 061°46'0 0.0
2018-Apr-17 13:27N 17°00' W 061°46'0 0.0
2018-Apr-17 13:00N 17°00' W 061°46'0 0.0
2018-Apr-17 12:30N 17°00' W 061°46'0 0.0
2018-Apr-17 12:00N 17°00' W 061°46'0 0.0
2018-Apr-17 11:30N 17°00' W 061°46'0 0.0
2018-Apr-17 11:00N 17°00' W 061°46'0 0.0
2018-Apr-17 10:30N 17°00' W 061°46'0 0.0
2018-Apr-17 10:00N 17°00' W 061°46'0 0.0
2018-Apr-17 09:30N 17°00' W 061°46'0 0.0
2018-Apr-17 09:00N 17°00' W 061°46'0 0.0
2018-Apr-17 08:30N 17°00' W 061°46'0 0.0
2018-Apr-17 08:00N 17°00' W 061°46'0 0.0
2018-Apr-17 07:30N 17°00' W 061°46'0 0.0
2018-Apr-17 07:00N 17°00' W 061°46'0 0.0
2018-Apr-17 06:30N 17°00' W 061°46'0 0.0
2018-Apr-17 06:00N 17°00' W 061°46'0 0.0
2018-Apr-17 05:30N 17°00' W 061°46'0 0.0
2018-Apr-17 05:00N 17°00' W 061°46'0 0.0
2018-Apr-17 04:30N 17°00' W 061°46'0 0.0
2018-Apr-17 04:00N 17°00' W 061°46'0 0.0
2018-Apr-17 03:30N 17°00' W 061°46'0 0.0
2018-Apr-17 03:00N 17°00' W 061°46'0 0.0
2018-Apr-17 02:30N 17°00' W 061°46'0 0.0
2018-Apr-17 02:00N 17°00' W 061°46'0 0.0
2018-Apr-17 01:30N 17°00' W 061°46'0 0.0
2018-Apr-17 01:00N 17°00' W 061°46'0 0.0
2018-Apr-17 00:30N 17°00' W 061°46'0 0.0
2018-Apr-17 00:00N 17°00' W 061°46'0 0.0
2018-Apr-16 23:30N 17°00' W 061°46'0 0.0
2018-Apr-16 23:00N 17°00' W 061°46'0 0.0
2018-Apr-16 22:30N 17°00' W 061°46'0 0.0
2018-Apr-16 22:00N 17°00' W 061°46'0 0.0
2018-Apr-16 21:30N 17°00' W 061°46'0 0.0
2018-Apr-16 21:00N 17°00' W 061°46'0 0.0
2018-Apr-16 20:30N 17°00' W 061°46'0 0.0
2018-Apr-16 20:00N 17°00' W 061°46'0 0.0
2018-Apr-16 19:30N 17°00' W 061°46'0 0.0
2018-Apr-16 19:00N 17°00' W 061°46'0 0.0
2018-Apr-16 18:30N 17°00' W 061°46'0 0.0
2018-Apr-16 18:00N 17°00' W 061°46'0 0.0
2018-Apr-16 17:30N 17°00' W 061°46'0 0.0
2018-Apr-16 17:00N 17°00' W 061°46'0 0.0
2018-Apr-16 16:30N 17°00' W 061°46'0 0.0
2018-Apr-16 16:00N 17°00' W 061°46'0 0.0
2018-Apr-16 15:30N 17°00' W 061°46'0 0.0
2018-Apr-16 15:00N 17°00' W 061°46'0 0.0
2018-Apr-16 14:30N 17°00' W 061°46'0 0.0
2018-Apr-16 14:00N 17°00' W 061°46'0 0.0
2018-Apr-16 13:30N 17°00' W 061°46'0 0.0
2018-Apr-16 13:00N 17°00' W 061°46'0 0.0
2018-Apr-16 12:30N 17°00' W 061°46'0 0.0
2018-Apr-16 12:00N 17°00' W 061°46'0 0.0
2018-Apr-16 11:30N 17°00' W 061°46'0 0.0
2018-Apr-16 11:00N 17°00' W 061°46'0 0.0
2018-Apr-16 10:30N 17°00' W 061°46'0 0.0
2018-Apr-16 10:00N 17°00' W 061°46'0 0.0
2018-Apr-16 09:30N 17°00' W 061°46'0 0.0
2018-Apr-16 09:00N 17°00' W 061°46'0 0.0
2018-Apr-16 08:30N 17°00' W 061°46'0 0.0
2018-Apr-16 08:00N 17°00' W 061°46'0 0.0
2018-Apr-16 07:30N 17°00' W 061°46'0 0.0
2018-Apr-16 07:00N 17°00' W 061°46'0 0.0
2018-Apr-16 06:30N 17°00' W 061°46'0 0.0
2018-Apr-16 06:00N 17°00' W 061°46'0 0.0
2018-Apr-16 05:30N 17°00' W 061°46'0 0.0
2018-Apr-16 05:00N 17°00' W 061°46'0 0.0
2018-Apr-16 04:30N 17°00' W 061°46'0 0.0
2018-Apr-16 04:00N 17°00' W 061°46'0 0.0
2018-Apr-16 03:30N 17°00' W 061°46'0 0.0
2018-Apr-16 03:00N 17°00' W 061°46'0 0.0
2018-Apr-16 02:30N 17°00' W 061°46'0 0.0
2018-Apr-16 02:00N 17°00' W 061°46'0 0.0
2018-Apr-16 01:30N 17°00' W 061°46'0 0.0
2018-Apr-16 01:00N 17°00' W 061°46'0 0.0
2018-Apr-16 00:30N 17°00' W 061°46'0 0.0
2018-Apr-16 00:00N 17°00' W 061°46'0 0.0
2018-Apr-15 23:27N 17°00' W 061°46'0 0.0
2018-Apr-15 23:00N 17°00' W 061°46'0 0.0
2018-Apr-15 22:30N 17°00' W 061°46'0 0.0
2018-Apr-15 22:00N 17°00' W 061°46'0 0.0
2018-Apr-15 21:30N 17°00' W 061°46'0 0.0
2018-Apr-15 21:00N 17°00' W 061°46'0 0.0
2018-Apr-15 20:30N 17°00' W 061°46'0 0.0
2018-Apr-15 20:00N 17°00' W 061°46'0 0.0
2018-Apr-15 19:30N 17°00' W 061°46'0 0.0
2018-Apr-15 19:00N 17°00' W 061°46'0 0.0
2018-Apr-15 18:30N 17°00' W 061°46'0 0.0
2018-Apr-15 18:00N 17°00' W 061°46'0 0.0
2018-Apr-15 17:30N 17°00' W 061°46'0 0.0
2018-Apr-15 17:00N 17°00' W 061°46'0 0.1
2018-Apr-15 16:30N 17°00' W 061°46'2 3.6
2018-Apr-15 16:00N 16°60' W 061°48'3 6.3
2018-Apr-15 15:30N 16°60' W 061°51'3 5.8
2018-Apr-15 15:00N 16°60' W 061°54'4 7.0
2018-Apr-15 14:25N 17°03' W 061°57'3 7.2
2018-Apr-15 14:00N 17°05' W 061°58'4 8.2
2018-Apr-15 13:30N 17°09' W 062°01'4 8.4
2018-Apr-15 12:58N 17°12' W 062°04'4 8.3
2018-Apr-15 12:30N 17°15' W 062°07'4 8.1
2018-Apr-15 12:00N 17°18' W 062°09'4 7.5
2018-Apr-15 11:26N 17°22' W 062°12'3 7.3
2018-Apr-15 11:00N 17°24' W 062°14'3 6.9
2018-Apr-15 10:30N 17°27' W 062°16'61 6.0
2018-Apr-15 00:22N 18°06' W 063°05'2 3.1
2018-Apr-14 23:52N 18°04' W 063°06'0 0.0
2018-Apr-14 23:16N 18°04' W 063°06'0 0.0
2018-Apr-14 22:52N 18°04' W 063°06'0 0.3
2018-Apr-14 22:13N 18°04' W 063°05'0 0.0
2018-Apr-14 21:55N 18°04' W 063°05'0 0.0
2018-Apr-14 21:28N 18°04' W 063°05'0 0.0
2018-Apr-14 20:46N 18°04' W 063°05'0 0.0
2018-Apr-14 20:28N 18°04' W 063°05'0 0.0
2018-Apr-14 19:58N 18°04' W 063°05'0 0.0
2018-Apr-14 19:28N 18°04' W 063°05'0 0.0
2018-Apr-14 18:58N 18°04' W 063°05'  

Dump ship's entire track history